createdAt,value
2019-03-28T00:01:15.668Z,100925.41
2019-03-28T00:03:44.436Z,100919.30
2019-03-28T00:06:13.164Z,100914.93
2019-03-28T00:08:41.896Z,100914.52
2019-03-28T00:11:10.656Z,100923.71
2019-03-28T00:13:39.415Z,100916.70
2019-03-28T00:16:08.157Z,100920.66
2019-03-28T00:18:36.887Z,100917.59
2019-03-28T00:21:05.621Z,100912.76
2019-03-28T00:23:38.957Z,100912.34
2019-03-28T00:26:07.686Z,100911.47
2019-03-28T00:28:36.976Z,100913.21
2019-03-28T00:31:05.908Z,100907.95
2019-03-28T00:33:34.653Z,100908.37
2019-03-28T00:36:03.411Z,100914.57
2019-03-28T00:38:32.147Z,100906.66
2019-03-28T00:41:00.916Z,100902.28
2019-03-28T00:43:29.663Z,100905.79
2019-03-28T00:45:59.381Z,100897.02
2019-03-28T00:48:28.159Z,100900.95
2019-03-28T00:50:56.896Z,100897.45
2019-03-28T00:53:25.661Z,100899.19
2019-03-28T00:55:54.431Z,100896.59
2019-03-28T00:58:23.136Z,100899.19
2019-03-28T01:00:51.927Z,100895.28
2019-03-28T01:03:20.667Z,100902.27
2019-03-28T01:05:49.431Z,100900.95
2019-03-28T01:08:18.167Z,100906.21
2019-03-28T01:10:47.258Z,100907.07
2019-03-28T01:13:16.161Z,100897.45
2019-03-28T01:15:44.907Z,100894.85
2019-03-28T01:18:13.666Z,100895.28
2019-03-28T01:20:42.401Z,100896.17
2019-03-28T01:23:11.181Z,100898.34
2019-03-28T01:25:39.934Z,100906.21
2019-03-28T01:28:08.693Z,100901.84
2019-03-28T01:30:37.513Z,100900.49
2019-03-28T01:33:06.253Z,100899.22
2019-03-28T01:35:35.036Z,100899.22
2019-03-28T01:38:04.072Z,100899.22
2019-03-28T01:40:32.842Z,100899.22
2019-03-28T01:43:01.602Z,100898.34
2019-03-28T01:45:30.338Z,100898.75
2019-03-28T01:47:59.125Z,100889.56
2019-03-28T01:50:27.866Z,100890.02
2019-03-28T01:52:56.605Z,100887.41
2019-03-28T01:55:25.374Z,100886.95
2019-03-28T01:57:54.163Z,100886.08
2019-03-28T02:00:22.927Z,100886.50
2019-03-28T02:02:51.648Z,100888.26
2019-03-28T02:05:20.391Z,100884.76
2019-03-28T02:07:49.152Z,100882.58
2019-03-28T02:10:17.893Z,100879.94
2019-03-28T02:12:46.681Z,100878.64
2019-03-28T02:15:15.426Z,100877.75
2019-03-28T02:17:44.179Z,100879.94
2019-03-28T02:20:13.156Z,100871.19
2019-03-28T02:22:41.901Z,100878.20
2019-03-28T02:25:10.681Z,100878.64
2019-03-28T02:27:39.426Z,100873.83
2019-03-28T02:30:08.681Z,100874.70
2019-03-28T02:32:37.453Z,100875.61
2019-03-28T02:35:09.953Z,100876.02
2019-03-28T02:37:38.718Z,100870.77
2019-03-28T02:40:08.000Z,100867.72
2019-03-28T02:42:36.749Z,100863.80
2019-03-28T02:45:07.726Z,100863.33
2019-03-28T02:47:36.476Z,100869.03
2019-03-28T02:50:06.983Z,100865.95
2019-03-28T02:52:38.111Z,100864.63
2019-03-28T02:55:07.918Z,100862.88
2019-03-28T02:57:41.752Z,100869.03
2019-03-28T03:00:08.449Z,100866.41
2019-03-28T03:02:38.212Z,100869.05
2019-03-28T03:05:08.842Z,100871.66
2019-03-28T03:07:39.221Z,100864.22
2019-03-28T03:10:08.464Z,100870.34
2019-03-28T03:12:39.247Z,100870.80
2019-03-28T03:15:08.842Z,100864.18
2019-03-28T03:17:37.577Z,100867.73
2019-03-28T03:20:08.669Z,100872.56
2019-03-28T03:22:38.530Z,100870.34
2019-03-28T03:25:07.979Z,100875.16
2019-03-28T03:27:36.752Z,100873.86
2019-03-28T03:30:08.470Z,100874.70
2019-03-28T03:32:37.287Z,100883.93
2019-03-28T03:35:06.868Z,100879.95
2019-03-28T03:37:35.668Z,100879.09
2019-03-28T03:40:08.868Z,100871.63
2019-03-28T03:42:37.616Z,100873.84
2019-03-28T03:45:09.046Z,100871.66
2019-03-28T03:47:38.308Z,100873.00
2019-03-28T03:50:08.467Z,100879.14
2019-03-28T03:52:37.227Z,100880.00
2019-03-28T03:55:07.187Z,100882.17
2019-03-28T03:57:35.946Z,100876.08
2019-03-28T04:00:09.046Z,100880.86
2019-03-28T04:02:37.969Z,100887.91
2019-03-28T04:05:07.741Z,100877.37
2019-03-28T04:07:36.470Z,100877.84
2019-03-28T04:10:07.222Z,100877.80
2019-03-28T04:12:36.012Z,100875.62
2019-03-28T04:15:07.148Z,100869.53
2019-03-28T04:17:35.892Z,100870.84
2019-03-28T04:20:07.187Z,100870.36
2019-03-28T04:22:36.984Z,100873.88
2019-03-28T04:25:07.990Z,100871.23
2019-03-28T04:27:36.766Z,100866.84
2019-03-28T04:30:07.869Z,100876.44
2019-03-28T04:32:36.631Z,100872.97
2019-03-28T04:35:08.243Z,100875.59
2019-03-28T04:37:36.994Z,100865.94
2019-03-28T04:40:08.503Z,100871.20
2019-03-28T04:42:39.247Z,100869.88
2019-03-28T04:45:09.148Z,100871.19
2019-03-28T04:47:38.206Z,100873.39
2019-03-28T04:50:07.647Z,100873.38
2019-03-28T04:52:36.486Z,100876.02
2019-03-28T04:55:06.567Z,100869.01
2019-03-28T04:57:35.307Z,100871.65
2019-03-28T05:00:06.350Z,100872.97
2019-03-28T05:02:36.527Z,100876.50
2019-03-28T05:05:06.807Z,100883.05
2019-03-28T05:07:35.568Z,100887.84
2019-03-28T05:10:06.468Z,100887.85
2019-03-28T05:12:35.188Z,100882.59
2019-03-28T05:15:06.087Z,100891.34
2019-03-28T05:17:35.067Z,100881.73
2019-03-28T05:20:04.826Z,100893.52
2019-03-28T05:22:33.628Z,100892.20
2019-03-28T05:25:02.411Z,100898.77
2019-03-28T05:27:31.127Z,100899.65
2019-03-28T05:29:59.949Z,100904.44
2019-03-28T05:32:28.706Z,100900.95
2019-03-28T05:34:57.486Z,100901.84
2019-03-28T05:37:26.249Z,100904.01
2019-03-28T05:39:55.006Z,100902.27
2019-03-28T05:42:23.808Z,100903.16
2019-03-28T05:44:52.567Z,100897.42
2019-03-28T05:47:22.179Z,100894.34
2019-03-28T05:49:51.260Z,100900.48
2019-03-28T05:52:20.006Z,100899.61
2019-03-28T05:54:48.775Z,100901.75
2019-03-28T05:57:17.566Z,100906.11
2019-03-28T05:59:46.331Z,100910.12
2019-03-28T06:02:15.147Z,100902.16
2019-03-28T06:04:43.966Z,100900.84
2019-03-28T06:07:12.734Z,100899.48
2019-03-28T06:09:41.487Z,100897.31
2019-03-28T06:12:10.289Z,100894.63
2019-03-28T06:14:39.048Z,100905.09
2019-03-28T06:17:07.806Z,100905.98
2019-03-28T06:19:36.606Z,100910.37
2019-03-28T06:22:05.389Z,100905.09
2019-03-28T06:24:34.203Z,100908.53
2019-03-28T06:27:03.007Z,100919.84
2019-03-28T06:29:31.761Z,100911.05
2019-03-28T06:32:00.529Z,100909.77
2019-03-28T06:34:29.365Z,100911.98
2019-03-28T06:36:58.127Z,100917.71
2019-03-28T06:39:26.887Z,100923.42
2019-03-28T06:41:55.730Z,100919.38
2019-03-28T06:44:25.840Z,100922.02
2019-03-28T06:46:55.261Z,100920.69
2019-03-28T06:49:24.186Z,100919.28
2019-03-28T06:51:52.966Z,100923.22
2019-03-28T06:54:24.389Z,100914.42
2019-03-28T06:56:53.386Z,100924.14
2019-03-28T06:59:22.127Z,100917.12
2019-03-28T07:01:51.965Z,100913.59
2019-03-28T07:04:21.311Z,100921.47
2019-03-28T07:06:50.066Z,100922.39
2019-03-28T07:09:18.873Z,100921.89
2019-03-28T07:11:47.670Z,100923.67
2019-03-28T07:14:16.446Z,100923.12
2019-03-28T07:16:47.496Z,100930.55
2019-03-28T07:19:16.266Z,100934.08
2019-03-28T07:21:45.027Z,100936.19
2019-03-28T07:24:13.829Z,100942.47
2019-03-28T07:26:42.571Z,100943.05
2019-03-28T07:29:11.346Z,100940.41
2019-03-28T07:31:41.529Z,100935.98
2019-03-28T07:34:13.377Z,100933.31
2019-03-28T07:36:40.830Z,100941.75
2019-03-28T07:39:09.606Z,100937.78
2019-03-28T07:41:38.471Z,100945.65
2019-03-28T07:44:07.227Z,100947.82
2019-03-28T07:46:36.046Z,100942.17
2019-03-28T07:49:04.898Z,100951.36
2019-03-28T07:51:33.646Z,100946.07
2019-03-28T07:54:02.446Z,100952.12
2019-03-28T07:56:31.224Z,100950.33
2019-03-28T07:59:00.026Z,100952.29
2019-03-28T08:01:28.787Z,100960.75
2019-03-28T08:03:57.546Z,100960.34
2019-03-28T08:06:26.353Z,100956.91
2019-03-28T08:08:55.088Z,100952.67
2019-03-28T08:11:24.025Z,100958.86
2019-03-28T08:13:52.907Z,100957.05
2019-03-28T08:16:21.683Z,100958.91
2019-03-28T08:18:50.446Z,100961.98
2019-03-28T08:21:19.210Z,100959.49
2019-03-28T08:23:48.006Z,100962.72
2019-03-28T08:26:16.746Z,100970.18
2019-03-28T08:28:45.486Z,100964.42
2019-03-28T08:31:14.934Z,100968.04
2019-03-28T08:33:44.686Z,100968.06
2019-03-28T08:36:15.307Z,100965.22
2019-03-28T08:38:45.567Z,100971.70
2019-03-28T08:41:14.306Z,100976.86
2019-03-28T08:43:43.106Z,100972.51
2019-03-28T08:46:11.866Z,100976.06
2019-03-28T08:48:40.686Z,100981.06
2019-03-28T08:51:09.445Z,100984.00
2019-03-28T08:53:38.208Z,100980.31
2019-03-28T08:56:07.006Z,100981.93
2019-03-28T08:58:38.132Z,100979.32
2019-03-28T09:01:06.867Z,100981.61
2019-03-28T09:03:35.646Z,100987.59
2019-03-28T09:06:04.432Z,100989.00
2019-03-28T09:08:33.247Z,100993.75
2019-03-28T09:11:02.007Z,100995.50
2019-03-28T09:13:30.808Z,100994.00
2019-03-28T09:15:59.568Z,100992.86
2019-03-28T09:18:29.228Z,100996.42
2019-03-28T09:20:58.031Z,101002.56
2019-03-28T09:23:26.786Z,100995.38
2019-03-28T09:25:55.606Z,100998.23
2019-03-28T09:28:26.706Z,100997.66
2019-03-28T09:30:55.610Z,100994.58
2019-03-28T09:33:24.886Z,100989.66
2019-03-28T09:35:53.646Z,100992.72
2019-03-28T09:38:22.426Z,100994.81
2019-03-28T09:40:51.207Z,100986.25
2019-03-28T09:43:20.007Z,100990.75
2019-03-28T09:45:50.206Z,100982.66
2019-03-28T09:48:18.967Z,100992.25
2019-03-28T09:50:47.746Z,100997.14
2019-03-28T09:53:16.513Z,100994.50
2019-03-28T09:55:45.316Z,100993.04
2019-03-28T09:58:14.087Z,100988.88
2019-03-28T10:00:42.829Z,100989.87
2019-03-28T10:03:11.589Z,100988.38
2019-03-28T10:05:40.465Z,100988.54
2019-03-28T10:08:09.247Z,100987.07
2019-03-28T10:10:37.988Z,100988.80
2019-03-28T10:13:06.747Z,100991.33
2019-03-28T10:15:37.131Z,100986.34
2019-03-28T10:18:05.988Z,100980.53
2019-03-28T10:20:34.809Z,100981.72
2019-03-28T10:23:03.567Z,100982.79
2019-03-28T10:25:32.307Z,100988.48
2019-03-28T10:28:01.086Z,100984.89
2019-03-28T10:30:35.711Z,100984.81
2019-03-28T10:33:04.548Z,100987.31
2019-03-28T10:35:33.306Z,100990.96
2019-03-28T10:38:02.046Z,100983.30
2019-03-28T10:40:30.827Z,100980.73
2019-03-28T10:42:59.566Z,100979.08
2019-03-28T10:45:28.366Z,100979.11
2019-03-28T10:47:57.138Z,100974.05
2019-03-28T10:50:39.922Z,100978.70
2019-03-28T10:52:56.427Z,100978.26
2019-03-28T10:55:25.226Z,100982.02
2019-03-28T10:57:54.035Z,100973.93
2019-03-28T11:00:24.613Z,100976.77
2019-03-28T11:02:53.989Z,100977.31
2019-03-28T11:05:22.848Z,100976.63
2019-03-28T11:07:51.643Z,100982.09
2019-03-28T11:10:20.426Z,100984.38
2019-03-28T11:12:49.226Z,100987.14
2019-03-28T11:15:18.071Z,100978.84
2019-03-28T11:17:47.596Z,100978.79
2019-03-28T11:20:16.751Z,100976.94
2019-03-28T11:22:45.591Z,100978.03
2019-03-28T11:25:14.493Z,100977.22
2019-03-28T11:27:43.286Z,100981.81
2019-03-28T11:30:13.146Z,100982.51
2019-03-28T11:32:41.907Z,100988.53
2019-03-28T11:35:10.689Z,100988.22
2019-03-28T11:37:39.528Z,100990.61
2019-03-28T11:40:09.746Z,100983.63
2019-03-28T11:42:38.506Z,100973.07
2019-03-28T11:45:09.381Z,100971.00
2019-03-28T11:47:38.627Z,100971.28
2019-03-28T11:50:09.585Z,100970.01
2019-03-28T11:52:38.426Z,100965.73
2019-03-28T11:55:08.088Z,100968.13
2019-03-28T11:57:37.848Z,100964.44
2019-03-28T12:00:09.868Z,100968.38
2019-03-28T12:02:38.647Z,100969.65
2019-03-28T12:05:07.768Z,100970.36
2019-03-28T12:07:36.526Z,100976.36
2019-03-28T12:10:10.489Z,100973.59
2019-03-28T12:12:38.506Z,100977.38
2019-03-28T12:15:08.371Z,100970.98
2019-03-28T12:17:37.166Z,100963.36
2019-03-28T12:20:07.931Z,100967.34
2019-03-28T12:22:36.687Z,100965.00
2019-03-28T12:25:07.887Z,100962.01
2019-03-28T12:27:36.706Z,100963.06
2019-03-28T12:30:10.927Z,100959.94
2019-03-28T12:32:39.687Z,100963.63
2019-03-28T12:35:09.286Z,100959.83
2019-03-28T12:37:38.047Z,100970.15
2019-03-28T12:40:10.768Z,100969.48
2019-03-28T12:42:39.579Z,100967.47
2019-03-28T12:45:10.607Z,100971.55
2019-03-28T12:47:43.167Z,100977.58
2019-03-28T12:50:14.355Z,100985.08
2019-03-28T12:52:43.110Z,100989.39
2019-03-28T12:55:13.931Z,100992.80
2019-03-28T12:57:42.666Z,100992.20
2019-03-28T13:00:13.408Z,100990.47
2019-03-28T13:02:42.249Z,100987.50
2019-03-28T13:05:11.654Z,100988.08
2019-03-28T13:07:40.728Z,100988.52
2019-03-28T13:10:11.571Z,100982.95
2019-03-28T13:12:40.348Z,100983.14
2019-03-28T13:15:09.516Z,100977.28
2019-03-28T13:17:38.346Z,100984.22
2019-03-28T13:20:09.134Z,100987.45
2019-03-28T13:22:37.873Z,100977.23
2019-03-28T13:25:07.924Z,100974.41
2019-03-28T13:27:37.063Z,100971.98
2019-03-28T13:30:13.607Z,100973.97
2019-03-28T13:32:42.652Z,100974.44
2019-03-28T13:35:11.706Z,100967.67
2019-03-28T13:37:40.506Z,100969.80
2019-03-28T13:40:09.690Z,100970.64
2019-03-28T13:42:39.080Z,100964.90
2019-03-28T13:45:10.208Z,100961.89
2019-03-28T13:47:39.067Z,100956.55
2019-03-28T13:50:09.926Z,100955.13
2019-03-28T13:52:38.687Z,100956.44
2019-03-28T13:55:08.350Z,100954.86
2019-03-28T13:57:37.171Z,100952.42
2019-03-28T14:00:08.239Z,100953.92
2019-03-28T14:02:37.186Z,100949.31
2019-03-28T14:05:07.448Z,100952.98
2019-03-28T14:07:36.628Z,100960.19
2019-03-28T14:10:06.772Z,100960.41
2019-03-28T14:12:35.608Z,100951.19
2019-03-28T14:15:05.168Z,100957.70
2019-03-28T14:17:35.082Z,100960.31
2019-03-28T14:20:05.431Z,100960.34
2019-03-28T14:22:34.406Z,100957.67
2019-03-28T14:25:03.231Z,100959.39
2019-03-28T14:27:31.972Z,100971.41
2019-03-28T14:30:00.706Z,100980.61
2019-03-28T14:32:29.463Z,100985.05
2019-03-28T14:34:58.226Z,100984.94
2019-03-28T14:37:40.839Z,100985.62
2019-03-28T14:40:14.562Z,100985.52
2019-03-28T14:42:43.637Z,100986.61
2019-03-28T14:45:12.407Z,100986.34
2019-03-28T14:47:41.140Z,100986.77
2019-03-28T14:50:10.601Z,100985.62
2019-03-28T14:52:39.387Z,100987.81
2019-03-28T14:55:08.308Z,100989.16
2019-03-28T14:57:37.155Z,100992.80
2019-03-28T15:00:15.017Z,100997.21
2019-03-28T15:02:55.213Z,100996.52
2019-03-28T15:05:37.046Z,100997.42
2019-03-28T15:08:12.949Z,101013.24
2019-03-28T15:10:51.158Z,101004.34
2019-03-28T15:13:21.848Z,100993.81
2019-03-28T15:15:52.193Z,101004.31
2019-03-28T15:18:33.999Z,101012.28
2019-03-28T15:21:16.959Z,101004.62
2019-03-28T15:23:46.600Z,101000.78
2019-03-28T15:26:15.390Z,101005.98
2019-03-28T15:28:44.146Z,101006.60
2019-03-28T15:31:12.946Z,101011.77
2019-03-28T15:33:41.726Z,101007.02
2019-03-28T15:36:10.526Z,101006.41
2019-03-28T15:38:39.934Z,101018.28
2019-03-28T15:41:09.087Z,101018.44
2019-03-28T15:43:40.327Z,101015.47
2019-03-28T15:46:09.086Z,101015.47
2019-03-28T15:48:37.885Z,101014.56
2019-03-28T15:51:06.685Z,101020.09
2019-03-28T15:53:35.506Z,101021.25
2019-03-28T15:56:04.306Z,101024.55
2019-03-28T15:58:33.108Z,101032.49
2019-03-28T16:01:01.946Z,101040.95
2019-03-28T16:03:30.852Z,101042.19
2019-03-28T16:05:59.606Z,101048.11
2019-03-28T16:08:28.431Z,101045.07
2019-03-28T16:10:57.189Z,101051.14
2019-03-28T16:13:25.946Z,101049.98
2019-03-28T16:15:54.846Z,101047.47
2019-03-28T16:18:23.606Z,101049.89
2019-03-28T16:20:53.489Z,101044.73
2019-03-28T16:23:22.466Z,101049.44
2019-03-28T16:25:51.227Z,101052.26
2019-03-28T16:28:20.083Z,101060.04
2019-03-28T16:30:48.986Z,101059.31
2019-03-28T16:33:17.766Z,101064.30
2019-03-28T16:35:46.527Z,101063.72
2019-03-28T16:38:15.510Z,101062.86
2019-03-28T16:40:44.336Z,101063.53
2019-03-28T16:43:17.055Z,101074.42
2019-03-28T16:45:49.193Z,101077.28
2019-03-28T16:48:27.311Z,101079.81
2019-03-28T16:51:10.354Z,101081.59
2019-03-28T16:53:40.215Z,101087.83
2019-03-28T16:56:10.451Z,101084.37
2019-03-28T16:58:40.571Z,101080.45
2019-03-28T17:01:12.743Z,101089.53
2019-03-28T17:03:41.987Z,101083.63
2019-03-28T17:06:11.266Z,101082.45
2019-03-28T17:08:43.570Z,101090.25
2019-03-28T17:11:12.546Z,101092.03
2019-03-28T17:13:41.437Z,101095.55
2019-03-28T17:16:10.207Z,101094.77
2019-03-28T17:18:38.965Z,101094.10
2019-03-28T17:21:08.028Z,101087.98
2019-03-28T17:23:36.813Z,101089.38
2019-03-28T17:26:06.247Z,101087.19
2019-03-28T17:28:35.027Z,101084.34
2019-03-28T17:31:03.908Z,101086.12
2019-03-28T17:33:32.667Z,101089.30
2019-03-28T17:36:02.066Z,101088.16
2019-03-28T17:38:30.855Z,101071.16
2019-03-28T17:40:59.609Z,101081.95
2019-03-28T17:43:38.115Z,101089.12
2019-03-28T17:46:07.007Z,101091.05
2019-03-28T17:48:35.779Z,101102.77
2019-03-28T17:51:04.788Z,101101.56
2019-03-28T17:53:33.628Z,101107.47
2019-03-28T17:56:02.386Z,101111.10
2019-03-28T17:58:31.736Z,101113.65
2019-03-28T18:01:00.579Z,101115.17
2019-03-28T18:03:31.406Z,101123.20
2019-03-28T18:05:59.868Z,101130.94
2019-03-28T18:08:28.666Z,101130.58
2019-03-28T18:11:00.239Z,101135.22
2019-03-28T18:13:28.146Z,101137.83
2019-03-28T18:15:57.145Z,101142.60
2019-03-28T18:18:25.927Z,101145.55
2019-03-28T18:20:55.142Z,101151.41
2019-03-28T18:23:23.972Z,101149.52
2019-03-28T18:25:52.947Z,101152.06
2019-03-28T18:28:21.928Z,101164.14
2019-03-28T18:30:50.686Z,101166.72
2019-03-28T18:33:19.607Z,101166.35
2019-03-28T18:35:48.429Z,101170.17
2019-03-28T18:38:17.246Z,101171.95
2019-03-28T18:40:46.866Z,101167.41
2019-03-28T18:43:15.848Z,101169.41
2019-03-28T18:45:44.648Z,101173.89
2019-03-28T18:48:27.394Z,101184.29
2019-03-28T18:50:45.606Z,101186.57
2019-03-28T18:53:16.070Z,101191.89
2019-03-28T18:55:44.998Z,101187.52
2019-03-28T18:58:13.926Z,101189.73
2019-03-28T19:00:42.848Z,101189.65
2019-03-28T19:03:11.689Z,101196.70
2019-03-28T19:05:40.666Z,101197.19
2019-03-28T19:08:09.506Z,101196.34
2019-03-28T19:10:39.827Z,101192.45
2019-03-28T19:13:08.888Z,101197.33
2019-03-28T19:15:37.827Z,101195.16
2019-03-28T19:18:06.786Z,101192.52
2019-03-28T19:20:35.993Z,101196.06
2019-03-28T19:23:07.249Z,101197.38
2019-03-28T19:25:35.835Z,101199.13
2019-03-28T19:28:07.510Z,101183.80
2019-03-28T19:30:35.752Z,101189.49
2019-03-28T19:33:06.864Z,101186.84
2019-03-28T19:35:36.946Z,101186.41
2019-03-28T19:38:08.930Z,101190.79
2019-03-28T19:40:36.747Z,101192.98
2019-03-28T19:43:19.307Z,101190.72
2019-03-28T19:45:37.566Z,101195.90
2019-03-28T19:48:06.987Z,101198.02
2019-03-28T19:50:36.127Z,101201.97
2019-03-28T19:53:05.466Z,101199.91
2019-03-28T19:55:34.286Z,101212.69
2019-03-28T19:58:03.356Z,101209.13
2019-03-28T20:00:32.169Z,101212.17
2019-03-28T20:03:02.387Z,101210.77
2019-03-28T20:05:31.606Z,101213.43
2019-03-28T20:08:14.388Z,101217.34
2019-03-28T20:10:30.987Z,101221.61
2019-03-28T20:12:59.846Z,101221.61
2019-03-28T20:15:28.875Z,101223.33
2019-03-28T20:17:57.604Z,101222.86
2019-03-28T20:20:26.486Z,101227.63
2019-03-28T20:22:56.160Z,101225.44
2019-03-28T20:25:25.649Z,101223.64
2019-03-28T20:27:54.446Z,101236.20
2019-03-28T20:30:23.584Z,101229.06
2019-03-28T20:32:52.545Z,101233.78
2019-03-28T20:35:22.018Z,101235.31
2019-03-28T20:37:51.087Z,101237.57
2019-03-28T20:40:20.166Z,101220.58
2019-03-28T20:42:48.943Z,101226.72
2019-03-28T20:45:19.529Z,101216.61
2019-03-28T20:47:48.305Z,101224.00
2019-03-28T20:50:17.889Z,101233.06
2019-03-28T20:52:46.659Z,101233.53
2019-03-28T20:55:16.414Z,101230.60
2019-03-28T20:57:45.159Z,101233.78
2019-03-28T21:00:14.747Z,101238.14
2019-03-28T21:02:45.086Z,101242.59
2019-03-28T21:05:14.686Z,101245.65
2019-03-28T21:07:43.619Z,101246.31
2019-03-28T21:10:15.668Z,101255.99
2019-03-28T21:12:44.586Z,101253.34
2019-03-28T21:15:13.366Z,101257.14
2019-03-28T21:17:42.206Z,101256.61
2019-03-28T21:20:11.207Z,101258.22
2019-03-28T21:22:39.993Z,101261.46
2019-03-28T21:25:08.886Z,101264.27
2019-03-28T21:27:37.645Z,101272.73
2019-03-28T21:30:07.806Z,101277.75
2019-03-28T21:32:36.805Z,101274.89
2019-03-28T21:35:08.770Z,101271.39
2019-03-28T21:37:37.566Z,101276.59
2019-03-28T21:40:07.132Z,101272.80
2019-03-28T21:42:37.147Z,101275.27
2019-03-28T21:45:06.867Z,101277.36
2019-03-28T21:47:35.632Z,101273.52
2019-03-28T21:50:08.645Z,101278.23
2019-03-28T21:52:37.447Z,101274.39
2019-03-28T21:55:07.866Z,101276.55
2019-03-28T21:57:38.141Z,101280.53
2019-03-28T22:00:11.011Z,101273.25
2019-03-28T22:02:39.746Z,101279.52
2019-03-28T22:05:09.249Z,101271.50
2019-03-28T22:07:38.046Z,101275.47
2019-03-28T22:10:09.096Z,101274.31
2019-03-28T22:12:38.026Z,101276.48
2019-03-28T22:15:08.228Z,101273.81
2019-03-28T22:17:37.387Z,101283.41
2019-03-28T22:20:07.811Z,101278.80
2019-03-28T22:22:36.606Z,101285.25
2019-03-28T22:25:07.173Z,101285.19
2019-03-28T22:27:35.910Z,101284.33
2019-03-28T22:30:05.411Z,101278.53
2019-03-28T22:32:34.189Z,101282.83
2019-03-28T22:35:02.929Z,101285.94
2019-03-28T22:37:31.747Z,101287.70
2019-03-28T22:40:00.551Z,101286.09
2019-03-28T22:42:29.324Z,101278.28
2019-03-28T22:44:58.154Z,101278.70
2019-03-28T22:47:26.916Z,101287.63
2019-03-28T22:49:55.651Z,101289.17
2019-03-28T22:52:24.529Z,101285.33
2019-03-28T22:54:53.309Z,101288.50
2019-03-28T22:57:22.046Z,101292.48
2019-03-28T22:59:50.862Z,101294.37
2019-03-28T23:02:19.587Z,101289.83
2019-03-28T23:04:48.348Z,101293.59
2019-03-28T23:07:17.148Z,101295.27
2019-03-28T23:09:45.910Z,101297.54
2019-03-28T23:12:14.680Z,101299.02
2019-03-28T23:14:44.190Z,101297.73
2019-03-28T23:17:13.575Z,101304.70
2019-03-28T23:19:42.354Z,101304.17
2019-03-28T23:22:11.196Z,101314.06
2019-03-28T23:24:40.549Z,101309.66
2019-03-28T23:27:09.325Z,101316.80
2019-03-28T23:29:38.130Z,101312.16
2019-03-28T23:32:06.871Z,101315.34
2019-03-28T23:34:35.629Z,101314.47
2019-03-28T23:37:04.429Z,101311.97
2019-03-28T23:39:33.195Z,101309.30
2019-03-28T23:42:01.970Z,101303.32
2019-03-28T23:44:30.777Z,101301.34
2019-03-28T23:46:59.530Z,101298.02
2019-03-28T23:49:28.281Z,101296.20
2019-03-28T23:51:57.090Z,101299.04
2019-03-28T23:54:26.903Z,101295.59
2019-03-28T23:56:55.788Z,101290.38
2019-03-28T23:59:24.598Z,101296.08
